createdAt,value
2023-04-19T00:00:59.486Z,61.68
2023-04-19T00:01:59.530Z,61.99
2023-04-19T00:02:59.591Z,61.58
2023-04-19T00:04:05.819Z,61.88
2023-04-19T00:04:59.495Z,62.09
2023-04-19T00:05:59.446Z,61.99
2023-04-19T00:06:59.402Z,61.27
2023-04-19T00:07:59.525Z,61.58
2023-04-19T00:08:59.355Z,61.88
2023-04-19T00:10:05.605Z,61.07
2023-04-19T00:10:59.348Z,60.65
2023-04-19T00:11:59.327Z,61.07
2023-04-19T00:12:59.307Z,61.27
2023-04-19T00:13:59.315Z,60.14
2023-04-19T00:14:59.337Z,60.24
2023-04-19T00:16:05.532Z,60.35
2023-04-19T00:16:59.315Z,60.03
2023-04-19T00:17:59.374Z,59.83
2023-04-19T00:18:59.264Z,59.42
2023-04-19T00:19:59.215Z,60.03
2023-04-19T00:21:05.460Z,59.31
2023-04-19T00:21:59.213Z,58.80
2023-04-19T00:22:59.212Z,59.29
2023-04-19T00:23:59.198Z,59.22
2023-04-19T00:24:59.161Z,58.91
2023-04-19T00:25:59.149Z,59.01
2023-04-19T00:27:05.410Z,58.29
2023-04-19T00:27:59.112Z,58.36
2023-04-19T00:28:59.125Z,58.16
2023-04-19T00:29:59.085Z,58.16
2023-04-19T00:30:59.073Z,57.54
2023-04-19T00:32:05.343Z,57.85
2023-04-19T00:32:59.133Z,57.44
2023-04-19T00:33:59.051Z,57.44
2023-04-19T00:34:59.036Z,57.03
2023-04-19T00:35:59.006Z,57.26
2023-04-19T00:36:59.031Z,56.95
2023-04-19T00:38:05.245Z,57.06
2023-04-19T00:38:58.970Z,58.18
2023-04-19T00:39:58.984Z,57.06
2023-04-19T00:40:58.980Z,57.46
2023-04-19T00:41:58.956Z,57.16
2023-04-19T00:43:05.170Z,56.85
2023-04-19T00:43:58.922Z,56.85
2023-04-19T00:44:58.926Z,56.34
2023-04-19T00:45:58.967Z,56.34
2023-04-19T00:46:58.916Z,56.54
2023-04-19T00:47:58.954Z,56.85
2023-04-19T00:49:05.108Z,57.16
2023-04-19T00:49:58.857Z,56.85
2023-04-19T00:50:58.839Z,56.54
2023-04-19T00:51:58.820Z,56.95
2023-04-19T00:52:58.792Z,57.06
2023-04-19T00:54:05.067Z,56.54
2023-04-19T00:54:58.785Z,57.36
2023-04-19T00:55:58.762Z,57.16
2023-04-19T00:56:58.737Z,56.64
2023-04-19T00:57:58.737Z,57.16
2023-04-19T00:58:58.726Z,57.26
2023-04-19T01:00:04.950Z,56.85
2023-04-19T01:00:58.701Z,57.26
2023-04-19T01:01:58.824Z,57.16
2023-04-19T01:02:58.718Z,56.54
2023-04-19T01:03:58.742Z,56.74
2023-04-19T01:04:58.632Z,57.08
2023-04-19T01:06:04.861Z,56.98
2023-04-19T01:06:58.649Z,57.59
2023-04-19T01:07:58.606Z,57.50
2023-04-19T01:08:58.597Z,56.87
2023-04-19T01:09:59.530Z,56.87
2023-04-19T01:11:04.808Z,56.77
2023-04-19T01:11:58.560Z,56.36
2023-04-19T01:12:58.546Z,57.18
2023-04-19T01:13:58.510Z,57.39
2023-04-19T01:14:58.547Z,56.87
2023-04-19T01:15:58.547Z,56.90
2023-04-19T01:17:04.766Z,56.77
2023-04-19T01:17:58.536Z,57.01
2023-04-19T01:18:58.449Z,57.10
2023-04-19T01:19:58.455Z,57.52
2023-04-19T01:20:58.455Z,57.21
2023-04-19T01:22:04.705Z,57.62
2023-04-19T01:22:58.395Z,57.31
2023-04-19T01:23:58.383Z,57.31
2023-04-19T01:24:58.380Z,57.52
2023-04-19T01:25:58.396Z,57.42
2023-04-19T01:27:04.594Z,57.31
2023-04-19T01:27:58.365Z,57.93
2023-04-19T01:28:58.354Z,57.52
2023-04-19T01:29:58.318Z,56.70
2023-04-19T01:30:59.173Z,56.80
2023-04-19T01:32:04.570Z,57.52
2023-04-19T01:32:58.454Z,57.73
2023-04-19T01:33:58.261Z,57.62
2023-04-19T01:34:58.251Z,57.31
2023-04-19T01:35:58.241Z,57.42
2023-04-19T01:37:04.489Z,57.01
2023-04-19T01:37:58.281Z,56.90
2023-04-19T01:38:58.239Z,56.80
2023-04-19T01:39:58.203Z,57.03
2023-04-19T01:40:58.188Z,57.44
2023-04-19T01:41:58.168Z,57.34
2023-04-19T01:43:04.369Z,57.96
2023-04-19T01:43:58.119Z,57.54
2023-04-19T01:44:58.146Z,58.06
2023-04-19T01:45:58.104Z,57.96
2023-04-19T01:46:58.138Z,58.06
2023-04-19T01:48:04.352Z,58.68
2023-04-19T01:48:58.116Z,57.34
2023-04-19T01:49:58.072Z,57.75
2023-04-19T01:50:58.039Z,58.47
2023-04-19T01:51:58.041Z,58.89
2023-04-19T01:53:04.275Z,58.70
2023-04-19T01:53:58.025Z,57.98
2023-04-19T01:54:58.012Z,57.98
2023-04-19T01:55:57.965Z,58.70
2023-04-19T01:56:57.995Z,58.19
2023-04-19T01:57:57.966Z,58.50
2023-04-19T01:59:04.206Z,58.09
2023-04-19T01:59:57.950Z,57.88
2023-04-19T02:00:57.945Z,58.29
2023-04-19T02:01:58.004Z,58.09
2023-04-19T02:02:58.028Z,57.88
2023-04-19T02:04:04.254Z,58.19
2023-04-19T02:04:57.855Z,58.91
2023-04-19T02:05:57.865Z,59.22
2023-04-19T02:06:57.856Z,58.29
2023-04-19T02:07:57.848Z,58.40
2023-04-19T02:09:04.110Z,59.01
2023-04-19T02:09:57.848Z,59.22
2023-04-19T02:10:57.783Z,58.50
2023-04-19T02:11:57.782Z,58.60
2023-04-19T02:12:58.011Z,57.98
2023-04-19T02:14:04.071Z,58.70
2023-04-19T02:14:57.749Z,59.22
2023-04-19T02:15:57.758Z,58.91
2023-04-19T02:16:57.923Z,58.70
2023-04-19T02:17:57.753Z,58.91
2023-04-19T02:18:57.689Z,59.12
2023-04-19T02:20:03.938Z,59.01
2023-04-19T02:20:57.670Z,58.81
2023-04-19T02:21:57.716Z,58.70
2023-04-19T02:22:57.660Z,59.33
2023-04-19T02:23:57.625Z,59.12
2023-04-19T02:25:03.829Z,59.22
2023-04-19T02:25:57.597Z,59.53
2023-04-19T02:26:57.610Z,59.01
2023-04-19T02:27:57.560Z,59.84
2023-04-19T02:28:57.577Z,59.04
2023-04-19T02:30:03.791Z,59.25
2023-04-19T02:30:57.516Z,59.66
2023-04-19T02:31:57.559Z,59.25
2023-04-19T02:32:57.548Z,59.66
2023-04-19T02:33:57.484Z,59.86
2023-04-19T02:35:03.715Z,60.07
2023-04-19T02:35:57.474Z,60.89
2023-04-19T02:36:57.499Z,60.17
2023-04-19T02:37:57.471Z,60.17
2023-04-19T02:38:57.425Z,59.66
2023-04-19T02:39:57.407Z,60.69
2023-04-19T02:41:03.653Z,60.00
2023-04-19T02:41:57.404Z,60.93
2023-04-19T02:42:57.402Z,60.31
2023-04-19T02:43:57.369Z,60.51
2023-04-19T02:44:57.351Z,60.51
2023-04-19T02:45:57.436Z,61.54
2023-04-19T02:47:03.638Z,60.72
2023-04-19T02:47:57.467Z,60.72
2023-04-19T02:48:57.321Z,61.44
2023-04-19T02:49:57.279Z,61.24
2023-04-19T02:50:57.295Z,61.44
2023-04-19T02:52:03.540Z,61.44
2023-04-19T02:52:57.255Z,61.13
2023-04-19T02:53:57.221Z,61.13
2023-04-19T02:54:57.225Z,61.13
2023-04-19T02:55:57.215Z,61.13
2023-04-19T02:56:57.409Z,61.33
2023-04-19T02:58:03.453Z,61.33
2023-04-19T02:58:57.186Z,61.85
2023-04-19T02:59:57.143Z,61.75
2023-04-19T03:00:57.189Z,61.24
2023-04-19T03:01:57.856Z,61.54
2023-04-19T03:03:03.561Z,62.06
2023-04-19T03:03:57.302Z,61.96
2023-04-19T03:04:57.088Z,61.85
2023-04-19T03:05:57.161Z,62.16
2023-04-19T03:06:57.096Z,62.08
2023-04-19T03:08:03.331Z,62.08
2023-04-19T03:08:57.045Z,62.50
2023-04-19T03:09:57.040Z,63.22
2023-04-19T03:10:57.016Z,62.81
2023-04-19T03:11:57.035Z,62.92
2023-04-19T03:12:57.006Z,63.01
2023-04-19T03:14:03.246Z,63.19
2023-04-19T03:14:56.973Z,62.60
2023-04-19T03:15:56.971Z,62.92
2023-04-19T03:16:56.979Z,62.71
2023-04-19T03:17:56.970Z,62.81
2023-04-19T03:18:56.939Z,63.22
2023-04-19T03:20:03.125Z,63.22
2023-04-19T03:20:56.896Z,63.53
2023-04-19T03:21:56.880Z,63.01
2023-04-19T03:22:56.870Z,63.43
2023-04-19T03:23:56.844Z,63.53
2023-04-19T03:25:03.110Z,63.95
2023-04-19T03:25:56.876Z,63.95
2023-04-19T03:26:56.785Z,63.77
2023-04-19T03:27:56.796Z,64.49
2023-04-19T03:28:56.763Z,64.59
2023-04-19T03:29:56.778Z,64.28
2023-04-19T03:31:03.024Z,64.49
2023-04-19T03:31:56.755Z,64.90
2023-04-19T03:32:56.742Z,64.80
2023-04-19T03:33:56.831Z,64.90
2023-04-19T03:34:56.700Z,65.31
2023-04-19T03:35:56.696Z,65.21
2023-04-19T03:37:02.904Z,65.73
2023-04-19T03:37:56.693Z,65.00
2023-04-19T03:38:56.629Z,65.00
2023-04-19T03:39:56.650Z,65.42
2023-04-19T03:40:56.671Z,65.21
2023-04-19T03:41:56.612Z,65.52
2023-04-19T03:43:02.864Z,66.14
2023-04-19T03:43:56.565Z,65.62
2023-04-19T03:44:56.585Z,65.94
2023-04-19T03:45:56.558Z,65.52
2023-04-19T03:46:56.542Z,65.62
2023-04-19T03:47:56.616Z,65.62
2023-04-19T03:49:02.785Z,65.86
2023-04-19T03:49:56.517Z,66.89
2023-04-19T03:50:56.577Z,66.38
2023-04-19T03:51:56.496Z,66.48
2023-04-19T03:52:56.535Z,66.48
2023-04-19T03:54:02.743Z,67.30
2023-04-19T03:54:56.439Z,67.30
2023-04-19T03:55:56.463Z,67.10
2023-04-19T03:56:56.425Z,67.41
2023-04-19T03:57:56.408Z,67.21
2023-04-19T03:59:02.759Z,67.61
2023-04-19T03:59:56.371Z,67.93
2023-04-19T04:00:56.353Z,67.41
2023-04-19T04:01:56.402Z,67.65
2023-04-19T04:02:56.600Z,67.85
2023-04-19T04:04:04.785Z,68.27
2023-04-19T04:04:56.473Z,68.68
2023-04-19T04:05:56.332Z,68.58
2023-04-19T04:06:56.291Z,68.99
2023-04-19T04:07:56.300Z,68.99
2023-04-19T04:09:02.560Z,68.48
2023-04-19T04:09:56.268Z,68.68
2023-04-19T04:10:56.239Z,68.78
2023-04-19T04:11:56.214Z,68.68
2023-04-19T04:12:56.221Z,69.09
2023-04-19T04:13:56.222Z,69.30
2023-04-19T04:15:02.434Z,69.20
2023-04-19T04:15:56.261Z,68.88
2023-04-19T04:16:56.188Z,69.20
2023-04-19T04:17:56.225Z,69.40
2023-04-19T04:18:56.140Z,69.92
2023-04-19T04:20:02.396Z,69.82
2023-04-19T04:20:56.152Z,69.71
2023-04-19T04:21:56.088Z,69.82
2023-04-19T04:22:56.098Z,70.43
2023-04-19T04:23:56.102Z,70.12
2023-04-19T04:24:56.039Z,70.03
2023-04-19T04:26:02.309Z,70.03
2023-04-19T04:26:56.044Z,70.12
2023-04-19T04:27:56.002Z,70.64
2023-04-19T04:28:56.064Z,70.54
2023-04-19T04:29:56.024Z,70.75
2023-04-19T04:31:02.225Z,71.06
2023-04-19T04:31:55.977Z,70.64
2023-04-19T04:32:56.027Z,71.16
2023-04-19T04:33:55.950Z,70.85
2023-04-19T04:34:55.996Z,71.06
2023-04-19T04:35:55.913Z,71.37
2023-04-19T04:37:02.190Z,71.98
2023-04-19T04:37:55.898Z,71.98
2023-04-19T04:38:55.865Z,71.67
2023-04-19T04:39:55.878Z,71.57
2023-04-19T04:40:55.868Z,71.47
2023-04-19T04:41:55.854Z,71.67
2023-04-19T04:43:02.141Z,71.67
2023-04-19T04:44:10.757Z,71.26
2023-04-19T04:44:57.338Z,71.57
2023-04-19T04:45:55.927Z,71.57
2023-04-19T04:46:55.820Z,72.61
2023-04-19T04:48:02.064Z,71.98
2023-04-19T04:48:55.756Z,72.40
2023-04-19T04:49:55.753Z,72.09
2023-04-19T04:50:55.746Z,72.30
2023-04-19T04:51:55.727Z,72.09
2023-04-19T04:52:55.718Z,72.30
2023-04-19T04:54:01.940Z,72.61
2023-04-19T04:54:55.702Z,72.40
2023-04-19T04:55:55.736Z,72.91
2023-04-19T04:56:55.754Z,72.30
2023-04-19T04:57:55.657Z,72.91
2023-04-19T04:58:55.655Z,73.43
2023-04-19T05:00:01.894Z,72.71
2023-04-19T05:00:55.747Z,72.81
2023-04-19T05:01:55.661Z,72.81
2023-04-19T05:02:55.689Z,72.81
2023-04-19T05:03:55.625Z,73.64
2023-04-19T05:04:55.609Z,72.91
2023-04-19T05:06:01.789Z,73.02
2023-04-19T05:06:55.562Z,73.22
2023-04-19T05:07:55.522Z,73.85
2023-04-19T05:08:55.515Z,73.43
2023-04-19T05:09:55.501Z,73.43
2023-04-19T05:11:01.710Z,73.33
2023-04-19T05:11:55.484Z,73.64
2023-04-19T05:12:55.522Z,73.33
2023-04-19T05:13:55.427Z,73.95
2023-04-19T05:14:55.445Z,73.43
2023-04-19T05:15:55.474Z,73.74
2023-04-19T05:17:01.643Z,74.05
2023-04-19T05:17:55.439Z,74.05
2023-04-19T05:18:55.385Z,73.54
2023-04-19T05:19:55.366Z,73.54
2023-04-19T05:20:55.422Z,73.43
2023-04-19T05:22:01.676Z,73.33
2023-04-19T05:22:55.326Z,73.43
2023-04-19T05:23:55.310Z,73.74
2023-04-19T05:24:55.310Z,73.54
2023-04-19T05:25:55.314Z,73.74
2023-04-19T05:26:55.312Z,73.85
2023-04-19T05:28:01.604Z,74.22
2023-04-19T05:28:55.264Z,73.85
2023-04-19T05:29:55.282Z,73.74
2023-04-19T05:30:55.317Z,74.33
2023-04-19T05:31:55.244Z,74.02
2023-04-19T05:32:55.300Z,73.71
2023-04-19T05:34:01.510Z,74.33
2023-04-19T05:34:55.194Z,73.60
2023-04-19T05:35:55.143Z,73.50
2023-04-19T05:36:55.168Z,73.77
2023-04-19T05:37:55.129Z,73.05
2023-04-19T05:38:55.119Z,72.85
2023-04-19T05:40:01.412Z,73.16
2023-04-19T05:40:55.104Z,72.85
2023-04-19T05:41:55.096Z,72.54
2023-04-19T05:42:55.141Z,73.09
2023-04-19T05:43:55.066Z,73.19
2023-04-19T05:45:02.476Z,74.12
2023-04-19T05:45:55.078Z,73.36
2023-04-19T05:46:55.025Z,73.26
2023-04-19T05:47:55.111Z,73.36
2023-04-19T05:48:55.007Z,73.68
2023-04-19T05:50:01.280Z,72.95
2023-04-19T05:50:54.987Z,72.85
2023-04-19T05:51:54.961Z,72.44
2023-04-19T05:52:55.004Z,73.26
2023-04-19T05:53:57.172Z,72.54
2023-04-19T05:55:01.143Z,72.64
2023-04-19T05:55:54.986Z,72.85
2023-04-19T05:56:54.890Z,72.85
2023-04-19T05:57:54.977Z,72.23
2023-04-19T05:58:54.915Z,72.44
2023-04-19T06:00:01.181Z,72.85
2023-04-19T06:00:54.870Z,72.95
2023-04-19T06:01:54.901Z,72.85
2023-04-19T06:02:54.915Z,72.13
2023-04-19T06:03:54.993Z,72.54
2023-04-19T06:05:04.948Z,72.54
2023-04-19T06:05:56.326Z,72.54
2023-04-19T06:06:54.816Z,72.44
2023-04-19T06:08:01.630Z,72.85
2023-04-19T06:08:56.273Z,72.23
2023-04-19T06:10:01.021Z,72.33
2023-04-19T06:10:58.454Z,72.50
2023-04-19T06:11:56.231Z,72.09
2023-04-19T06:12:54.722Z,71.58
2023-04-19T06:13:54.672Z,71.68
2023-04-19T06:15:00.993Z,71.26
2023-04-19T06:15:54.667Z,71.37
2023-04-19T06:16:54.640Z,71.58
2023-04-19T06:17:54.756Z,71.58
2023-04-19T06:18:54.608Z,71.95
2023-04-19T06:19:54.594Z,71.03
2023-04-19T06:21:00.893Z,70.92
2023-04-19T06:21:54.573Z,70.82
2023-04-19T06:22:54.579Z,70.62
2023-04-19T06:23:54.611Z,70.62
2023-04-19T06:24:54.594Z,70.20
2023-04-19T06:26:00.755Z,70.28
2023-04-19T06:26:54.608Z,69.86
2023-04-19T06:27:54.486Z,70.28
2023-04-19T06:28:54.517Z,69.45
2023-04-19T06:29:54.454Z,69.45
2023-04-19T06:31:00.794Z,69.35
2023-04-19T06:31:54.546Z,69.76
2023-04-19T06:32:54.641Z,69.62
2023-04-19T06:33:54.427Z,69.11
2023-04-19T06:34:54.420Z,69.01
2023-04-19T06:35:54.433Z,68.49
2023-04-19T06:37:00.629Z,69.21
2023-04-19T06:37:54.387Z,68.80
2023-04-19T06:38:54.344Z,68.59
2023-04-19T06:39:54.353Z,68.70
2023-04-19T06:40:54.322Z,68.35
2023-04-19T06:41:54.316Z,68.25
2023-04-19T06:43:00.550Z,68.05
2023-04-19T06:43:54.288Z,67.63
2023-04-19T06:44:54.290Z,67.63
2023-04-19T06:45:54.305Z,67.81
2023-04-19T06:46:54.255Z,67.30
2023-04-19T06:48:00.533Z,67.30
2023-04-19T06:48:54.221Z,66.47
2023-04-19T06:49:54.223Z,65.92
2023-04-19T06:50:54.188Z,66.03
2023-04-19T06:51:54.177Z,66.13
2023-04-19T06:52:54.179Z,66.24
2023-04-19T06:54:00.409Z,65.52
2023-04-19T06:54:54.150Z,65.62
2023-04-19T06:55:54.165Z,65.89
2023-04-19T06:56:54.149Z,65.80
2023-04-19T06:57:54.119Z,65.48
2023-04-19T06:59:00.346Z,64.87
2023-04-19T06:59:54.094Z,64.46
2023-04-19T07:00:54.064Z,64.66
2023-04-19T07:01:54.313Z,64.01
2023-04-19T07:02:54.380Z,64.22
2023-04-19T07:04:00.391Z,65.05
2023-04-19T07:04:54.015Z,64.01
2023-04-19T07:05:54.002Z,63.37
2023-04-19T07:06:53.968Z,63.37
2023-04-19T07:07:53.988Z,63.37
2023-04-19T07:09:00.406Z,62.96
2023-04-19T07:09:54.147Z,62.45
2023-04-19T07:10:53.941Z,62.52
2023-04-19T07:11:53.918Z,62.93
2023-04-19T07:12:53.902Z,61.60
2023-04-19T07:13:53.896Z,62.01
2023-04-19T07:15:00.181Z,60.88
2023-04-19T07:15:53.884Z,60.88
2023-04-19T07:16:53.889Z,61.46
2023-04-19T07:17:53.853Z,60.33
2023-04-19T07:18:53.821Z,60.54
2023-04-19T07:19:53.835Z,59.82
2023-04-19T07:21:00.045Z,59.72
2023-04-19T07:21:53.775Z,59.48
2023-04-19T07:22:53.823Z,58.77
2023-04-19T07:23:53.763Z,59.28
2023-04-19T07:24:53.745Z,57.95
2023-04-19T07:26:00.022Z,57.64
2023-04-19T07:26:53.733Z,58.05
2023-04-19T07:27:53.762Z,58.44
2023-04-19T07:28:53.695Z,57.61
2023-04-19T07:29:53.718Z,56.90
2023-04-19T07:30:53.699Z,56.38
2023-04-19T07:32:00.011Z,56.90
2023-04-19T07:32:53.707Z,57.31
2023-04-19T07:33:53.659Z,56.56
2023-04-19T07:34:53.620Z,56.35
2023-04-19T07:35:53.621Z,56.26
2023-04-19T07:36:53.629Z,55.94
2023-04-19T07:37:59.824Z,56.26
2023-04-19T07:38:53.663Z,55.62
2023-04-19T07:39:53.557Z,55.10
2023-04-19T07:40:53.537Z,54.90
2023-04-19T07:41:53.535Z,55.41
2023-04-19T07:42:59.788Z,55.08
2023-04-19T07:43:53.504Z,54.57
2023-04-19T07:44:53.485Z,54.16
2023-04-19T07:45:53.468Z,54.87
2023-04-19T07:46:53.598Z,54.23
2023-04-19T07:47:53.521Z,53.11
2023-04-19T07:48:59.683Z,52.80
2023-04-19T07:49:53.466Z,52.70
2023-04-19T07:50:53.411Z,52.37
2023-04-19T07:51:53.398Z,53.39
2023-04-19T07:52:53.409Z,52.57
2023-04-19T07:53:53.416Z,52.87
2023-04-19T07:54:59.637Z,52.26
2023-04-19T07:55:53.346Z,52.06
2023-04-19T07:56:53.371Z,51.73
2023-04-19T07:57:53.325Z,51.12
2023-04-19T07:59:04.478Z,51.12
2023-04-19T07:59:54.791Z,50.48
2023-04-19T08:00:59.563Z,50.27
2023-04-19T08:01:53.351Z,49.66
2023-04-19T08:02:53.374Z,50.48
2023-04-19T08:03:53.549Z,50.27
2023-04-19T08:04:53.459Z,49.76
2023-04-19T08:05:53.230Z,50.25
2023-04-19T08:06:59.438Z,50.04
2023-04-19T08:07:53.201Z,49.95
2023-04-19T08:08:53.205Z,49.43
2023-04-19T08:09:53.206Z,49.43
2023-04-19T08:10:53.157Z,49.13
2023-04-19T08:11:53.142Z,49.22
2023-04-19T08:13:05.883Z,48.28
2023-04-19T08:14:26.827Z,48.28
2023-04-19T08:15:04.808Z,47.37
2023-04-19T08:17:53.089Z,47.24
2023-04-19T08:18:59.293Z,46.83
2023-04-19T08:19:53.043Z,47.24
2023-04-19T08:20:53.058Z,46.94
2023-04-19T08:21:53.031Z,47.94
2023-04-19T08:22:53.010Z,47.12
2023-04-19T08:23:59.261Z,47.12
2023-04-19T08:24:52.979Z,46.20
2023-04-19T08:25:52.969Z,46.61
2023-04-19T08:26:52.931Z,49.34
2023-04-19T08:27:52.955Z,51.07
2023-04-19T08:28:52.920Z,50.46
2023-04-19T08:29:59.221Z,48.40
2023-04-19T08:30:52.885Z,47.28
2023-04-19T08:31:52.898Z,49.60
2023-04-19T08:32:55.440Z,47.66
2023-04-19T08:33:52.892Z,47.46
2023-04-19T08:34:52.875Z,47.87
2023-04-19T08:35:59.094Z,47.03
2023-04-19T08:37:03.587Z,47.13
2023-04-19T08:37:54.313Z,49.29
2023-04-19T08:39:04.216Z,47.74
2023-04-19T08:39:54.326Z,45.91
2023-04-19T08:40:59.013Z,45.79
2023-04-19T08:42:02.961Z,45.89
2023-04-19T08:42:54.257Z,46.17
2023-04-19T08:43:52.736Z,45.26
2023-04-19T08:45:13.621Z,44.24
2023-04-19T08:45:59.956Z,44.85
2023-04-19T08:46:52.671Z,44.95
2023-04-19T08:48:00.850Z,45.18
2023-04-19T08:48:54.290Z,46.42
2023-04-19T08:50:06.801Z,45.61
2023-04-19T08:51:05.632Z,44.89
2023-04-19T08:51:54.119Z,45.10
2023-04-19T08:52:58.818Z,45.40
2023-04-19T08:53:54.102Z,45.61
2023-04-19T08:54:52.586Z,46.62
2023-04-19T08:56:52.561Z,45.40
2023-04-19T08:57:52.541Z,45.81
2023-04-19T08:59:07.328Z,46.72
2023-04-19T08:59:54.041Z,45.71
2023-04-19T09:00:52.481Z,47.13
2023-04-19T09:01:58.816Z,47.13
2023-04-19T09:02:52.640Z,46.42
2023-04-19T09:04:02.379Z,45.40
2023-04-19T09:04:54.180Z,45.68
2023-04-19T09:05:52.603Z,45.18
2023-04-19T09:06:52.452Z,44.95
2023-04-19T09:07:58.645Z,44.85
2023-04-19T09:08:52.403Z,45.26
2023-04-19T09:10:02.417Z,45.06
2023-04-19T09:10:53.912Z,44.65
2023-04-19T09:11:52.366Z,45.26
2023-04-19T09:12:58.615Z,44.75
2023-04-19T09:13:52.975Z,44.85
2023-04-19T09:15:52.353Z,45.87
2023-04-19T09:16:52.384Z,46.17
2023-04-19T09:17:58.693Z,45.26
2023-04-19T09:18:59.754Z,44.45
2023-04-19T09:19:53.765Z,45.01
2023-04-19T09:20:52.248Z,43.77
2023-04-19T09:21:52.247Z,42.02
2023-04-19T09:22:52.211Z,41.60
2023-04-19T09:23:58.446Z,42.61
2023-04-19T09:26:15.111Z,39.65
2023-04-19T09:26:53.201Z,40.77
2023-04-19T09:27:52.143Z,40.87
2023-04-19T09:28:52.137Z,40.14
2023-04-19T09:29:58.413Z,39.84
2023-04-19T09:31:02.347Z,40.75
2023-04-19T09:31:53.745Z,39.94
2023-04-19T09:32:52.181Z,37.91
2023-04-19T09:33:55.973Z,37.91
2023-04-19T09:34:58.367Z,37.91
2023-04-19T09:35:52.034Z,38.43
2023-04-19T09:37:00.588Z,38.05
2023-04-19T09:38:04.710Z,38.25
2023-04-19T09:38:53.511Z,38.88
2023-04-19T09:39:58.253Z,38.68
2023-04-19T09:40:51.972Z,39.61
2023-04-19T09:41:51.981Z,39.61
2023-04-19T09:44:03.189Z,37.96
2023-04-19T09:45:59.663Z,39.57
2023-04-19T09:46:53.508Z,39.25
2023-04-19T09:47:51.971Z,38.21
2023-04-19T09:48:51.870Z,37.99
2023-04-19T09:49:52.057Z,37.16
2023-04-19T09:50:57.486Z,36.76
2023-04-19T09:51:59.598Z,37.15
2023-04-19T09:52:51.878Z,37.13
2023-04-19T09:53:51.799Z,36.02
2023-04-19T09:54:51.812Z,36.30
2023-04-19T09:56:01.182Z,36.71
2023-04-19T09:56:54.792Z,35.28
2023-04-19T09:57:58.014Z,34.89
2023-04-19T09:58:58.637Z,35.19
2023-04-19T09:59:53.240Z,35.58
2023-04-19T10:00:57.269Z,35.09
2023-04-19T10:01:53.291Z,35.33
2023-04-19T10:02:58.775Z,36.46
2023-04-19T10:03:52.768Z,36.46
2023-04-19T10:05:53.193Z,36.14
2023-04-19T10:07:13.871Z,35.83
2023-04-19T10:08:00.058Z,36.12
2023-04-19T10:08:51.726Z,36.12
2023-04-19T10:09:53.573Z,36.22
2023-04-19T10:10:51.620Z,36.65
2023-04-19T10:11:54.481Z,36.14
2023-04-19T10:13:16.153Z,35.82
2023-04-19T10:13:53.131Z,36.00
2023-04-19T10:14:51.547Z,36.21
2023-04-19T10:15:57.051Z,36.19
2023-04-19T10:16:53.159Z,34.66
2023-04-19T10:17:51.556Z,34.45
2023-04-19T10:18:57.749Z,34.17
2023-04-19T10:19:51.471Z,35.48
2023-04-19T10:20:51.491Z,37.50
2023-04-19T10:21:51.473Z,35.86
2023-04-19T10:22:51.449Z,34.54
2023-04-19T10:23:51.430Z,34.42
2023-04-19T10:24:57.678Z,33.70
2023-04-19T10:25:51.415Z,33.48
2023-04-19T10:26:51.424Z,33.38
2023-04-19T10:27:51.394Z,32.98
2023-04-19T10:28:51.358Z,33.38
2023-04-19T10:29:57.653Z,33.36
2023-04-19T10:30:51.350Z,33.97
2023-04-19T10:31:51.409Z,33.28
2023-04-19T10:32:51.375Z,33.80
2023-04-19T10:33:51.317Z,33.28
2023-04-19T10:34:57.590Z,32.76
2023-04-19T10:35:51.280Z,32.34
2023-04-19T10:36:51.266Z,32.64
2023-04-19T10:37:51.269Z,32.64
2023-04-19T10:38:51.258Z,32.04
2023-04-19T10:39:57.469Z,32.73
2023-04-19T10:40:51.224Z,32.01
2023-04-19T10:41:51.186Z,31.20
2023-04-19T10:42:51.210Z,30.99
2023-04-19T10:43:51.183Z,31.30
2023-04-19T10:44:57.453Z,30.90
2023-04-19T10:45:51.195Z,31.33
2023-04-19T10:46:51.168Z,32.47
2023-04-19T10:47:51.138Z,33.58
2023-04-19T10:48:51.111Z,33.28
2023-04-19T10:49:57.371Z,32.66
2023-04-19T10:50:51.069Z,32.64
2023-04-19T10:51:51.075Z,31.93
2023-04-19T10:52:51.307Z,32.35
2023-04-19T10:53:51.037Z,32.57
2023-04-19T10:54:57.289Z,33.09
2023-04-19T10:55:51.022Z,32.27
2023-04-19T10:56:51.009Z,32.07
2023-04-19T10:57:50.991Z,32.29
2023-04-19T10:58:51.005Z,33.11
2023-04-19T10:59:57.211Z,32.89
2023-04-19T11:00:50.950Z,32.17
2023-04-19T11:01:51.078Z,34.08
2023-04-19T11:02:51.081Z,32.15
2023-04-19T11:03:51.105Z,31.75
2023-04-19T11:04:57.185Z,32.24
2023-04-19T11:05:50.889Z,31.43
2023-04-19T11:06:50.911Z,32.04
2023-04-19T11:07:50.872Z,32.44
2023-04-19T11:08:50.830Z,32.95
2023-04-19T11:09:57.111Z,31.84
2023-04-19T11:10:52.220Z,32.23
2023-04-19T11:11:50.818Z,31.51
2023-04-19T11:12:50.795Z,30.79
2023-04-19T11:13:50.784Z,30.27
2023-04-19T11:14:57.024Z,31.30
2023-04-19T11:15:50.793Z,31.22
2023-04-19T11:16:50.786Z,32.24
2023-04-19T11:18:00.724Z,31.73
2023-04-19T11:18:52.274Z,31.52
2023-04-19T11:19:50.728Z,31.62
2023-04-19T11:20:56.953Z,30.91
2023-04-19T11:21:50.698Z,31.72
2023-04-19T11:22:50.675Z,30.97
2023-04-19T11:23:50.676Z,30.65
2023-04-19T11:24:50.656Z,30.88
2023-04-19T11:25:56.893Z,30.79
2023-04-19T11:26:51.312Z,31.30
2023-04-19T11:27:50.620Z,31.93
2023-04-19T11:28:50.598Z,31.95
2023-04-19T11:29:50.615Z,32.86
2023-04-19T11:30:50.616Z,32.46
2023-04-19T11:31:56.872Z,32.37
2023-04-19T11:32:50.599Z,32.67
2023-04-19T11:33:50.550Z,32.78
2023-04-19T11:34:50.529Z,32.87
2023-04-19T11:35:50.529Z,33.81
2023-04-19T11:36:50.523Z,34.54
2023-04-19T11:37:56.768Z,34.66
2023-04-19T11:38:50.462Z,35.06
2023-04-19T11:39:50.450Z,34.25
2023-04-19T11:40:50.545Z,35.36
2023-04-19T11:41:50.452Z,34.45
2023-04-19T11:42:50.446Z,34.05
2023-04-19T11:43:56.673Z,34.97
2023-04-19T11:44:50.428Z,34.77
2023-04-19T11:45:50.488Z,35.16
2023-04-19T11:46:50.416Z,33.59
2023-04-19T11:47:50.560Z,31.79
2023-04-19T11:48:56.622Z,30.52
2023-04-19T11:49:50.354Z,29.41
2023-04-19T11:50:50.350Z,29.85
2023-04-19T11:51:50.356Z,31.30
2023-04-19T11:52:50.298Z,32.75
2023-04-19T11:53:56.570Z,32.66
2023-04-19T11:54:50.297Z,33.29
2023-04-19T11:55:50.287Z,33.21
2023-04-19T11:56:50.289Z,33.83
2023-04-19T11:57:50.233Z,34.95
2023-04-19T11:58:50.267Z,34.37
2023-04-19T11:59:56.471Z,36.61
2023-04-19T12:00:50.240Z,35.90
2023-04-19T12:01:50.260Z,36.12
2023-04-19T12:02:50.339Z,36.12
2023-04-19T12:03:50.365Z,36.83
2023-04-19T12:04:56.505Z,35.73
2023-04-19T12:05:50.212Z,36.34
2023-04-19T12:06:50.120Z,36.14
2023-04-19T12:07:50.116Z,35.51
2023-04-19T12:08:50.192Z,34.80
2023-04-19T12:09:50.106Z,35.41
2023-04-19T12:10:56.348Z,34.91
2023-04-19T12:11:50.350Z,35.11
2023-04-19T12:12:50.088Z,34.70
2023-04-19T12:13:50.084Z,34.60
2023-04-19T12:14:50.037Z,35.19
2023-04-19T12:15:56.291Z,34.59
2023-04-19T12:16:50.050Z,34.88
2023-04-19T12:17:56.820Z,34.05
2023-04-19T12:18:51.538Z,33.64
2023-04-19T12:19:49.970Z,34.25
2023-04-19T12:20:56.245Z,34.25
2023-04-19T12:21:49.951Z,33.84
2023-04-19T12:22:49.940Z,34.55
2023-04-19T12:23:49.923Z,34.05
2023-04-19T12:24:49.965Z,34.25
2023-04-19T12:25:56.168Z,34.06
2023-04-19T12:26:49.935Z,34.67
2023-04-19T12:27:49.850Z,35.30
2023-04-19T12:28:49.860Z,35.09
2023-04-19T12:29:49.860Z,34.38
2023-04-19T12:30:49.835Z,34.18
2023-04-19T12:31:56.173Z,34.59
2023-04-19T12:32:49.874Z,34.89
2023-04-19T12:33:49.796Z,34.79
2023-04-19T12:34:49.812Z,34.59
2023-04-19T12:35:49.767Z,34.60
2023-04-19T12:36:49.764Z,35.31
2023-04-19T12:37:55.978Z,35.19
2023-04-19T12:38:49.706Z,34.28
2023-04-19T12:39:49.708Z,34.60
2023-04-19T12:40:49.686Z,34.80
2023-04-19T12:41:49.694Z,35.11
2023-04-19T12:42:49.678Z,34.40
2023-04-19T12:43:55.976Z,34.80
2023-04-19T12:44:49.642Z,34.91
2023-04-19T12:45:49.669Z,34.60
2023-04-19T12:46:49.645Z,34.69
2023-04-19T12:47:49.618Z,35.09
2023-04-19T12:48:49.575Z,35.51
2023-04-19T12:49:55.863Z,35.80
2023-04-19T12:50:49.639Z,36.10
2023-04-19T12:51:49.601Z,34.88
2023-04-19T12:52:49.531Z,35.28
2023-04-19T12:53:49.507Z,35.04
2023-04-19T12:54:49.512Z,35.44
2023-04-19T12:55:55.778Z,34.50
2023-04-19T12:56:49.538Z,34.08
2023-04-19T12:57:49.477Z,33.80
2023-04-19T12:58:49.538Z,34.08
2023-04-19T12:59:49.482Z,32.83
2023-04-19T13:00:49.445Z,31.04